sensor_id;sensor_type;location;lat;lon;timestamp;P1;durP1;ratioP1;P2;durP2;ratioP2
62947;SDS011;51940;52.126;-0.994;2022-12-07T00:01:36;22.60;;;11.60;;
62947;SDS011;51940;52.126;-0.994;2022-12-07T00:04:04;22.20;;;11.20;;
62947;SDS011;51940;52.126;-0.994;2022-12-07T00:06:32;19.70;;;11.90;;
62947;SDS011;51940;52.126;-0.994;2022-12-07T00:08:58;20.80;;;11.10;;
62947;SDS011;51940;52.126;-0.994;2022-12-07T00:11:24;18.90;;;11.70;;
62947;SDS011;51940;52.126;-0.994;2022-12-07T00:13:54;21.20;;;11.40;;
62947;SDS011;51940;52.126;-0.994;2022-12-07T00:16:21;17.10;;;11.50;;
62947;SDS011;51940;52.126;-0.994;2022-12-07T00:18:48;20.50;;;11.70;;
62947;SDS011;51940;52.126;-0.994;2022-12-07T00:21:15;22.30;;;11.50;;
62947;SDS011;51940;52.126;-0.994;2022-12-07T00:23:43;21.30;;;11.20;;
62947;SDS011;51940;52.126;-0.994;2022-12-07T00:26:10;22.70;;;10.90;;
62947;SDS011;51940;52.126;-0.994;2022-12-07T00:28:37;19.70;;;11.50;;
62947;SDS011;51940;52.126;-0.994;2022-12-07T00:31:05;23.60;;;11.70;;
62947;SDS011;51940;52.126;-0.994;2022-12-07T00:33:36;18.80;;;12.00;;
62947;SDS011;51940;52.126;-0.994;2022-12-07T00:36:02;20.60;;;11.70;;
62947;SDS011;51940;52.126;-0.994;2022-12-07T00:38:32;19.60;;;11.90;;
62947;SDS011;51940;52.126;-0.994;2022-12-07T00:40:59;18.80;;;11.30;;
62947;SDS011;51940;52.126;-0.994;2022-12-07T00:43:27;18.40;;;10.50;;
62947;SDS011;51940;52.126;-0.994;2022-12-07T00:45:53;15.60;;;10.40;;
62947;SDS011;51940;52.126;-0.994;2022-12-07T00:48:19;20.40;;;11.70;;
62947;SDS011;51940;52.126;-0.994;2022-12-07T00:50:45;16.90;;;11.00;;
62947;SDS011;51940;52.126;-0.994;2022-12-07T00:53:11;19.60;;;11.10;;
62947;SDS011;51940;52.126;-0.994;2022-12-07T00:55:36;16.20;;;10.70;;
62947;SDS011;51940;52.126;-0.994;2022-12-07T00:58:02;16.90;;;10.80;;
62947;SDS011;51940;52.126;-0.994;2022-12-07T01:00:28;15.70;;;10.60;;
62947;SDS011;51940;52.126;-0.994;2022-12-07T01:02:53;19.20;;;11.10;;
62947;SDS011;51940;52.126;-0.994;2022-12-07T01:05:19;16.40;;;11.30;;
62947;SDS011;51940;52.126;-0.994;2022-12-07T01:07:44;17.00;;;10.80;;
62947;SDS011;51940;52.126;-0.994;2022-12-07T01:10:11;18.50;;;11.00;;
62947;SDS011;51940;52.126;-0.994;2022-12-07T01:12:37;19.70;;;11.10;;
62947;SDS011;51940;52.126;-0.994;2022-12-07T01:15:02;20.80;;;10.80;;
62947;SDS011;51940;52.126;-0.994;2022-12-07T01:17:28;17.50;;;10.90;;
62947;SDS011;51940;52.126;-0.994;2022-12-07T01:19:54;23.00;;;11.40;;
62947;SDS011;51940;52.126;-0.994;2022-12-07T01:22:19;21.00;;;11.20;;
62947;SDS011;51940;52.126;-0.994;2022-12-07T01:24:44;20.20;;;11.40;;
62947;SDS011;51940;52.126;-0.994;2022-12-07T01:27:12;17.50;;;10.50;;
62947;SDS011;51940;52.126;-0.994;2022-12-07T01:29:38;20.70;;;10.60;;
62947;SDS011;51940;52.126;-0.994;2022-12-07T01:32:04;19.20;;;10.50;;
62947;SDS011;51940;52.126;-0.994;2022-12-07T01:34:30;18.50;;;11.10;;
62947;SDS011;51940;52.126;-0.994;2022-12-07T01:36:55;20.10;;;11.30;;
62947;SDS011;51940;52.126;-0.994;2022-12-07T01:39:21;18.00;;;10.70;;
62947;SDS011;51940;52.126;-0.994;2022-12-07T01:41:46;20.30;;;11.00;;
62947;SDS011;51940;52.126;-0.994;2022-12-07T01:49:23;22.20;;;11.70;;
62947;SDS011;51940;52.126;-0.994;2022-12-07T01:51:54;21.80;;;12.20;;
62947;SDS011;51940;52.126;-0.994;2022-12-07T01:54:25;19.90;;;10.80;;
62947;SDS011;51940;52.126;-0.994;2022-12-07T01:56:52;17.50;;;11.60;;
62947;SDS011;51940;52.126;-0.994;2022-12-07T01:59:21;19.60;;;12.00;;
62947;SDS011;51940;52.126;-0.994;2022-12-07T02:01:50;20.30;;;11.70;;
62947;SDS011;51940;52.126;-0.994;2022-12-07T02:04:17;19.10;;;11.10;;
62947;SDS011;51940;52.126;-0.994;2022-12-07T02:06:43;19.10;;;11.40;;
62947;SDS011;51940;52.126;-0.994;2022-12-07T02:09:11;17.40;;;11.10;;
62947;SDS011;51940;52.126;-0.994;2022-12-07T02:11:37;18.10;;;11.10;;
62947;SDS011;51940;52.126;-0.994;2022-12-07T02:14:03;21.20;;;11.40;;
62947;SDS011;51940;52.126;-0.994;2022-12-07T02:19:20;19.70;;;11.40;;
62947;SDS011;51940;52.126;-0.994;2022-12-07T02:22:07;19.90;;;11.40;;
62947;SDS011;51940;52.126;-0.994;2022-12-07T02:24:57;19.10;;;10.90;;
62947;SDS011;51940;52.126;-0.994;2022-12-07T02:30:52;20.10;;;11.40;;
62947;SDS011;51940;52.126;-0.994;2022-12-07T02:33:27;22.40;;;11.20;;
62947;SDS011;51940;52.126;-0.994;2022-12-07T02:35:59;18.60;;;10.30;;
62947;SDS011;51940;52.126;-0.994;2022-12-07T02:38:37;18.60;;;11.70;;
62947;SDS011;51940;52.126;-0.994;2022-12-07T02:41:11;19.90;;;11.00;;
62947;SDS011;51940;52.126;-0.994;2022-12-07T02:43:47;17.90;;;10.60;;
62947;SDS011;51940;52.126;-0.994;2022-12-07T02:46:21;19.70;;;10.90;;
62947;SDS011;51940;52.126;-0.994;2022-12-07T02:48:51;18.80;;;10.30;;
62947;SDS011;51940;52.126;-0.994;2022-12-07T02:51:19;19.10;;;10.70;;
62947;SDS011;51940;52.126;-0.994;2022-12-07T02:53:46;19.90;;;9.60;;
62947;SDS011;51940;52.126;-0.994;2022-12-07T03:07:29;18.20;;;10.30;;
62947;SDS011;51940;52.126;-0.994;2022-12-07T03:12:58;15.40;;;9.40;;
62947;SDS011;51940;52.126;-0.994;2022-12-07T03:18:21;16.80;;;9.20;;
62947;SDS011;51940;52.126;-0.994;2022-12-07T03:20:49;16.10;;;9.20;;
62947;SDS011;51940;52.126;-0.994;2022-12-07T03:23:20;17.70;;;9.20;;
62947;SDS011;51940;52.126;-0.994;2022-12-07T03:25:49;16.30;;;8.70;;
62947;SDS011;51940;52.126;-0.994;2022-12-07T03:28:20;16.60;;;8.80;;
62947;SDS011;51940;52.126;-0.994;2022-12-07T03:30:56;18.30;;;9.00;;
62947;SDS011;51940;52.126;-0.994;2022-12-07T03:33:28;15.70;;;8.90;;
62947;SDS011;51940;52.126;-0.994;2022-12-07T03:38:36;16.00;;;8.70;;
62947;SDS011;51940;52.126;-0.994;2022-12-07T03:41:08;16.20;;;8.90;;
62947;SDS011;51940;52.126;-0.994;2022-12-07T03:43:37;15.80;;;8.50;;
62947;SDS011;51940;52.126;-0.994;2022-12-07T03:51:46;15.60;;;8.20;;
62947;SDS011;51940;52.126;-0.994;2022-12-07T03:54:47;19.00;;;9.20;;
62947;SDS011;51940;52.126;-0.994;2022-12-07T03:57:21;14.40;;;9.10;;
62947;SDS011;51940;52.126;-0.994;2022-12-07T03:59:49;15.10;;;8.80;;
62947;SDS011;51940;52.126;-0.994;2022-12-07T04:02:16;14.70;;;8.60;;
62947;SDS011;51940;52.126;-0.994;2022-12-07T04:04:42;15.10;;;8.70;;
62947;SDS011;51940;52.126;-0.994;2022-12-07T04:07:08;15.60;;;9.00;;
62947;SDS011;51940;52.126;-0.994;2022-12-07T04:09:34;15.80;;;8.80;;
62947;SDS011;51940;52.126;-0.994;2022-12-07T04:11:59;16.80;;;9.30;;
62947;SDS011;51940;52.126;-0.994;2022-12-07T04:14:25;17.40;;;8.80;;
62947;SDS011;51940;52.126;-0.994;2022-12-07T04:16:52;15.70;;;9.40;;
62947;SDS011;51940;52.126;-0.994;2022-12-07T04:19:24;13.80;;;9.20;;
62947;SDS011;51940;52.126;-0.994;2022-12-07T04:21:51;13.00;;;8.50;;
62947;SDS011;51940;52.126;-0.994;2022-12-07T04:24:17;14.30;;;9.60;;
62947;SDS011;51940;52.126;-0.994;2022-12-07T04:26:42;19.10;;;9.60;;
62947;SDS011;51940;52.126;-0.994;2022-12-07T04:29:09;18.60;;;9.20;;
62947;SDS011;51940;52.126;-0.994;2022-12-07T04:31:35;17.10;;;9.80;;
62947;SDS011;51940;52.126;-0.994;2022-12-07T04:34:01;18.00;;;9.80;;
62947;SDS011;51940;52.126;-0.994;2022-12-07T04:36:27;12.60;;;8.90;;
62947;SDS011;51940;52.126;-0.994;2022-12-07T04:38:53;22.10;;;9.40;;
62947;SDS011;51940;52.126;-0.994;2022-12-07T04:41:20;14.60;;;9.60;;
62947;SDS011;51940;52.126;-0.994;2022-12-07T04:44:10;17.70;;;9.30;;
62947;SDS011;51940;52.126;-0.994;2022-12-07T04:46:39;14.50;;;9.60;;
62947;SDS011;51940;52.126;-0.994;2022-12-07T04:49:04;16.00;;;9.90;;
62947;SDS011;51940;52.126;-0.994;2022-12-07T04:51:30;17.60;;;9.50;;
62947;SDS011;51940;52.126;-0.994;2022-12-07T04:53:55;17.10;;;9.50;;
62947;SDS011;51940;52.126;-0.994;2022-12-07T04:56:22;16.90;;;9.40;;
62947;SDS011;51940;52.126;-0.994;2022-12-07T04:58:48;17.90;;;10.00;;
62947;SDS011;51940;52.126;-0.994;2022-12-07T05:01:15;15.50;;;9.40;;
62947;SDS011;51940;52.126;-0.994;2022-12-07T05:03:41;17.70;;;9.70;;
62947;SDS011;51940;52.126;-0.994;2022-12-07T05:06:08;15.90;;;9.10;;
62947;SDS011;51940;52.126;-0.994;2022-12-07T05:08:34;17.00;;;10.60;;
62947;SDS011;51940;52.126;-0.994;2022-12-07T05:11:00;16.50;;;9.70;;
62947;SDS011;51940;52.126;-0.994;2022-12-07T05:13:26;20.30;;;10.40;;
62947;SDS011;51940;52.126;-0.994;2022-12-07T05:15:52;19.70;;;10.50;;
62947;SDS011;51940;52.126;-0.994;2022-12-07T05:18:17;17.80;;;10.10;;
62947;SDS011;51940;52.126;-0.994;2022-12-07T05:20:43;21.00;;;10.10;;
62947;SDS011;51940;52.126;-0.994;2022-12-07T05:23:09;18.60;;;10.10;;
62947;SDS011;51940;52.126;-0.994;2022-12-07T05:25:36;19.20;;;10.80;;
62947;SDS011;51940;52.126;-0.994;2022-12-07T05:28:02;20.10;;;11.20;;
62947;SDS011;51940;52.126;-0.994;2022-12-07T05:30:28;16.40;;;10.80;;
62947;SDS011;51940;52.126;-0.994;2022-12-07T05:32:54;19.10;;;10.40;;
62947;SDS011;51940;52.126;-0.994;2022-12-07T05:35:20;21.30;;;11.00;;
62947;SDS011;51940;52.126;-0.994;2022-12-07T05:37:45;17.30;;;10.50;;
62947;SDS011;51940;52.126;-0.994;2022-12-07T05:40:11;19.00;;;10.30;;
62947;SDS011;51940;52.126;-0.994;2022-12-07T05:42:37;20.30;;;10.80;;
62947;SDS011;51940;52.126;-0.994;2022-12-07T05:45:04;20.20;;;11.30;;
62947;SDS011;51940;52.126;-0.994;2022-12-07T05:47:30;19.20;;;11.20;;
62947;SDS011;51940;52.126;-0.994;2022-12-07T05:49:55;19.50;;;11.40;;
62947;SDS011;51940;52.126;-0.994;2022-12-07T05:52:21;18.80;;;11.00;;
62947;SDS011;51940;52.126;-0.994;2022-12-07T05:54:46;20.90;;;11.90;;
62947;SDS011;51940;52.126;-0.994;2022-12-07T05:57:12;17.10;;;10.80;;
62947;SDS011;51940;52.126;-0.994;2022-12-07T05:59:37;18.30;;;11.40;;
62947;SDS011;51940;52.126;-0.994;2022-12-07T06:02:03;19.40;;;10.90;;
62947;SDS011;51940;52.126;-0.994;2022-12-07T06:04:33;22.30;;;11.00;;
62947;SDS011;51940;52.126;-0.994;2022-12-07T06:07:01;23.30;;;11.40;;
62947;SDS011;51940;52.126;-0.994;2022-12-07T06:09:28;21.80;;;10.90;;
62947;SDS011;51940;52.126;-0.994;2022-12-07T06:11:54;23.20;;;11.40;;
62947;SDS011;51940;52.126;-0.994;2022-12-07T06:14:39;19.50;;;11.90;;
62947;SDS011;51940;52.126;-0.994;2022-12-07T06:17:05;19.80;;;11.40;;
62947;SDS011;51940;52.126;-0.994;2022-12-07T06:19:30;20.50;;;12.20;;
62947;SDS011;51940;52.126;-0.994;2022-12-07T06:21:56;19.00;;;10.90;;
62947;SDS011;51940;52.126;-0.994;2022-12-07T06:24:22;19.30;;;10.70;;
62947;SDS011;51940;52.126;-0.994;2022-12-07T06:26:48;22.30;;;12.40;;
62947;SDS011;51940;52.126;-0.994;2022-12-07T06:29:14;21.10;;;12.00;;
62947;SDS011;51940;52.126;-0.994;2022-12-07T06:31:40;23.90;;;11.90;;
62947;SDS011;51940;52.126;-0.994;2022-12-07T06:34:07;24.40;;;12.10;;
62947;SDS011;51940;52.126;-0.994;2022-12-07T06:36:35;20.20;;;11.70;;
62947;SDS011;51940;52.126;-0.994;2022-12-07T06:39:01;21.50;;;11.70;;
62947;SDS011;51940;52.126;-0.994;2022-12-07T06:41:27;20.80;;;11.70;;
62947;SDS011;51940;52.126;-0.994;2022-12-07T06:43:52;26.90;;;11.40;;
62947;SDS011;51940;52.126;-0.994;2022-12-07T06:46:18;19.80;;;11.20;;
62947;SDS011;51940;52.126;-0.994;2022-12-07T06:48:43;20.10;;;11.90;;
62947;SDS011;51940;52.126;-0.994;2022-12-07T06:51:09;21.90;;;11.60;;
62947;SDS011;51940;52.126;-0.994;2022-12-07T06:53:35;19.60;;;11.50;;
62947;SDS011;51940;52.126;-0.994;2022-12-07T06:56:01;18.80;;;11.80;;
62947;SDS011;51940;52.126;-0.994;2022-12-07T06:58:26;20.80;;;11.50;;
62947;SDS011;51940;52.126;-0.994;2022-12-07T07:00:52;21.40;;;12.30;;
62947;SDS011;51940;52.126;-0.994;2022-12-07T07:03:18;25.20;;;13.20;;
62947;SDS011;51940;52.126;-0.994;2022-12-07T07:05:44;23.20;;;12.70;;
62947;SDS011;51940;52.126;-0.994;2022-12-07T07:08:10;24.80;;;12.70;;
62947;SDS011;51940;52.126;-0.994;2022-12-07T07:10:37;24.30;;;12.80;;
62947;SDS011;51940;52.126;-0.994;2022-12-07T07:13:03;17.60;;;11.30;;
62947;SDS011;51940;52.126;-0.994;2022-12-07T07:15:29;22.60;;;13.00;;
62947;SDS011;51940;52.126;-0.994;2022-12-07T07:17:56;22.50;;;12.40;;
62947;SDS011;51940;52.126;-0.994;2022-12-07T07:20:22;26.10;;;12.80;;
62947;SDS011;51940;52.126;-0.994;2022-12-07T07:22:47;23.40;;;12.50;;
62947;SDS011;51940;52.126;-0.994;2022-12-07T07:25:14;23.30;;;12.90;;
62947;SDS011;51940;52.126;-0.994;2022-12-07T07:27:39;25.80;;;13.00;;
62947;SDS011;51940;52.126;-0.994;2022-12-07T07:30:05;23.80;;;13.60;;
62947;SDS011;51940;52.126;-0.994;2022-12-07T07:32:31;22.90;;;13.20;;
62947;SDS011;51940;52.126;-0.994;2022-12-07T07:34:56;26.60;;;14.10;;
62947;SDS011;51940;52.126;-0.994;2022-12-07T07:37:22;24.50;;;13.50;;
62947;SDS011;51940;52.126;-0.994;2022-12-07T07:39:47;26.40;;;13.80;;
62947;SDS011;51940;52.126;-0.994;2022-12-07T07:42:12;24.40;;;13.30;;
62947;SDS011;51940;52.126;-0.994;2022-12-07T07:44:38;25.20;;;13.20;;
62947;SDS011;51940;52.126;-0.994;2022-12-07T07:47:03;23.70;;;13.50;;
62947;SDS011;51940;52.126;-0.994;2022-12-07T07:49:29;26.10;;;13.40;;
62947;SDS011;51940;52.126;-0.994;2022-12-07T07:51:54;24.30;;;13.30;;
62947;SDS011;51940;52.126;-0.994;2022-12-07T07:54:19;24.30;;;13.30;;
62947;SDS011;51940;52.126;-0.994;2022-12-07T07:56:45;27.30;;;14.50;;
62947;SDS011;51940;52.126;-0.994;2022-12-07T07:59:10;28.30;;;13.90;;
62947;SDS011;51940;52.126;-0.994;2022-12-07T08:01:36;25.60;;;14.10;;
62947;SDS011;51940;52.126;-0.994;2022-12-07T08:04:01;23.90;;;13.20;;
62947;SDS011;51940;52.126;-0.994;2022-12-07T08:06:27;23.60;;;13.80;;
62947;SDS011;51940;52.126;-0.994;2022-12-07T08:08:52;26.70;;;13.80;;
62947;SDS011;51940;52.126;-0.994;2022-12-07T08:11:18;27.00;;;14.50;;
62947;SDS011;51940;52.126;-0.994;2022-12-07T08:13:46;23.10;;;14.10;;
62947;SDS011;51940;52.126;-0.994;2022-12-07T08:16:12;24.70;;;13.90;;
62947;SDS011;51940;52.126;-0.994;2022-12-07T08:18:38;22.20;;;13.50;;
62947;SDS011;51940;52.126;-0.994;2022-12-07T08:21:05;25.20;;;14.80;;
62947;SDS011;51940;52.126;-0.994;2022-12-07T08:23:32;22.30;;;13.90;;
62947;SDS011;51940;52.126;-0.994;2022-12-07T08:26:03;25.60;;;14.50;;
62947;SDS011;51940;52.126;-0.994;2022-12-07T08:28:29;28.40;;;15.80;;
62947;SDS011;51940;52.126;-0.994;2022-12-07T08:31:03;29.00;;;16.60;;
62947;SDS011;51940;52.126;-0.994;2022-12-07T08:33:31;27.60;;;16.80;;
62947;SDS011;51940;52.126;-0.994;2022-12-07T08:36:07;26.50;;;15.50;;
62947;SDS011;51940;52.126;-0.994;2022-12-07T08:38:34;25.50;;;15.20;;
62947;SDS011;51940;52.126;-0.994;2022-12-07T08:41:01;27.90;;;15.30;;
62947;SDS011;51940;52.126;-0.994;2022-12-07T08:43:26;24.00;;;13.90;;
62947;SDS011;51940;52.126;-0.994;2022-12-07T08:48:58;30.30;;;14.80;;
62947;SDS011;51940;52.126;-0.994;2022-12-07T08:51:28;22.60;;;13.60;;
62947;SDS011;51940;52.126;-0.994;2022-12-07T08:53:54;19.40;;;12.80;;
62947;SDS011;51940;52.126;-0.994;2022-12-07T08:56:21;20.20;;;13.10;;
62947;SDS011;51940;52.126;-0.994;2022-12-07T08:58:47;29.70;;;14.40;;
62947;SDS011;51940;52.126;-0.994;2022-12-07T09:01:13;29.40;;;15.90;;
62947;SDS011;51940;52.126;-0.994;2022-12-07T09:03:39;29.80;;;15.60;;
62947;SDS011;51940;52.126;-0.994;2022-12-07T09:06:05;28.30;;;14.60;;
62947;SDS011;51940;52.126;-0.994;2022-12-07T09:08:32;25.20;;;14.00;;
62947;SDS011;51940;52.126;-0.994;2022-12-07T09:11:00;21.40;;;13.30;;
62947;SDS011;51940;52.126;-0.994;2022-12-07T09:13:25;24.10;;;13.80;;
62947;SDS011;51940;52.126;-0.994;2022-12-07T09:15:51;25.20;;;11.70;;
62947;SDS011;51940;52.126;-0.994;2022-12-07T09:18:16;24.00;;;13.90;;
62947;SDS011;51940;52.126;-0.994;2022-12-07T09:20:42;23.70;;;12.60;;
62947;SDS011;51940;52.126;-0.994;2022-12-07T09:23:07;24.80;;;12.20;;
62947;SDS011;51940;52.126;-0.994;2022-12-07T09:25:33;21.70;;;12.60;;
62947;SDS011;51940;52.126;-0.994;2022-12-07T09:27:59;24.20;;;13.60;;
62947;SDS011;51940;52.126;-0.994;2022-12-07T09:30:24;24.00;;;13.40;;
62947;SDS011;51940;52.126;-0.994;2022-12-07T09:32:55;21.40;;;13.50;;
62947;SDS011;51940;52.126;-0.994;2022-12-07T09:35:21;22.40;;;13.40;;
62947;SDS011;51940;52.126;-0.994;2022-12-07T09:37:47;20.20;;;12.40;;
62947;SDS011;51940;52.126;-0.994;2022-12-07T09:40:13;21.30;;;12.50;;
62947;SDS011;51940;52.126;-0.994;2022-12-07T09:42:41;20.30;;;12.10;;
62947;SDS011;51940;52.126;-0.994;2022-12-07T09:45:53;22.00;;;11.70;;
62947;SDS011;51940;52.126;-0.994;2022-12-07T09:48:02;19.50;;;11.30;;
62947;SDS011;51940;52.126;-0.994;2022-12-07T09:50:29;20.30;;;12.00;;
62947;SDS011;51940;52.126;-0.994;2022-12-07T09:53:07;16.70;;;11.40;;
62947;SDS011;51940;52.126;-0.994;2022-12-07T09:55:38;18.70;;;10.90;;
62947;SDS011;51940;52.126;-0.994;2022-12-07T09:58:08;18.40;;;11.70;;
62947;SDS011;51940;52.126;-0.994;2022-12-07T10:00:43;19.90;;;10.90;;
62947;SDS011;51940;52.126;-0.994;2022-12-07T10:03:08;20.30;;;11.50;;
62947;SDS011;51940;52.126;-0.994;2022-12-07T10:05:41;16.20;;;10.70;;
62947;SDS011;51940;52.126;-0.994;2022-12-07T10:08:11;17.30;;;10.80;;
62947;SDS011;51940;52.126;-0.994;2022-12-07T10:10:37;18.30;;;9.80;;
62947;SDS011;51940;52.126;-0.994;2022-12-07T10:13:08;19.50;;;9.10;;
62947;SDS011;51940;52.126;-0.994;2022-12-07T10:21:15;12.60;;;7.40;;
62947;SDS011;51940;52.126;-0.994;2022-12-07T10:26:36;10.40;;;7.10;;
62947;SDS011;51940;52.126;-0.994;2022-12-07T10:32:04;12.50;;;6.80;;
62947;SDS011;51940;52.126;-0.994;2022-12-07T10:34:35;9.60;;;6.80;;
62947;SDS011;51940;52.126;-0.994;2022-12-07T10:39:52;10.60;;;7.60;;
62947;SDS011;51940;52.126;-0.994;2022-12-07T10:42:23;14.90;;;7.40;;
62947;SDS011;51940;52.126;-0.994;2022-12-07T10:47:44;12.70;;;6.70;;
62947;SDS011;51940;52.126;-0.994;2022-12-07T11:03:59;14.70;;;8.60;;
62947;SDS011;51940;52.126;-0.994;2022-12-07T11:12:13;12.00;;;6.90;;
62947;SDS011;51940;52.126;-0.994;2022-12-07T11:17:45;10.50;;;7.10;;
62947;SDS011;51940;52.126;-0.994;2022-12-07T11:37:18;8.70;;;5.30;;
62947;SDS011;51940;52.126;-0.994;2022-12-07T11:39:51;11.30;;;5.00;;
62947;SDS011;51940;52.126;-0.994;2022-12-07T11:42:37;10.00;;;5.30;;
62947;SDS011;51940;52.126;-0.994;2022-12-07T11:47:36;6.00;;;5.00;;
62947;SDS011;51940;52.126;-0.994;2022-12-07T11:50:33;7.80;;;5.10;;
62947;SDS011;51940;52.126;-0.994;2022-12-07T11:58:08;9.50;;;5.10;;
62947;SDS011;51940;52.126;-0.994;2022-12-07T12:01:41;6.40;;;5.20;;
62947;SDS011;51940;52.126;-0.994;2022-12-07T12:06:36;11.50;;;6.20;;
62947;SDS011;51940;52.126;-0.994;2022-12-07T12:12:02;10.50;;;6.10;;
62947;SDS011;51940;52.126;-0.994;2022-12-07T12:17:41;10.20;;;5.50;;
62947;SDS011;51940;52.126;-0.994;2022-12-07T12:25:29;9.20;;;6.00;;
62947;SDS011;51940;52.126;-0.994;2022-12-07T12:28:02;9.00;;;5.40;;
62947;SDS011;51940;52.126;-0.994;2022-12-07T12:46:45;8.50;;;5.60;;
62947;SDS011;51940;52.126;-0.994;2022-12-07T13:02:31;10.00;;;5.70;;
62947;SDS011;51940;52.126;-0.994;2022-12-07T13:15:50;10.10;;;5.90;;
62947;SDS011;51940;52.126;-0.994;2022-12-07T13:23:25;11.60;;;5.90;;
62947;SDS011;51940;52.126;-0.994;2022-12-07T13:26:00;9.30;;;6.60;;
62947;SDS011;51940;52.126;-0.994;2022-12-07T13:28:36;11.40;;;6.00;;
62947;SDS011;51940;52.126;-0.994;2022-12-07T13:34:01;8.90;;;5.10;;
62947;SDS011;51940;52.126;-0.994;2022-12-07T13:36:32;7.80;;;5.00;;
62947;SDS011;51940;52.126;-0.994;2022-12-07T13:41:58;7.80;;;5.10;;
62947;SDS011;51940;52.126;-0.994;2022-12-07T13:44:27;7.60;;;4.60;;
62947;SDS011;51940;52.126;-0.994;2022-12-07T13:49:38;6.00;;;4.30;;
62947;SDS011;51940;52.126;-0.994;2022-12-07T13:54:55;10.00;;;4.30;;
62947;SDS011;51940;52.126;-0.994;2022-12-07T13:57:22;8.90;;;5.00;;
62947;SDS011;51940;52.126;-0.994;2022-12-07T13:59:49;8.20;;;4.90;;
62947;SDS011;51940;52.126;-0.994;2022-12-07T14:02:18;6.90;;;4.30;;
62947;SDS011;51940;52.126;-0.994;2022-12-07T14:04:46;11.00;;;4.90;;
62947;SDS011;51940;52.126;-0.994;2022-12-07T14:07:23;6.60;;;4.30;;
62947;SDS011;51940;52.126;-0.994;2022-12-07T14:09:57;8.40;;;4.80;;
62947;SDS011;51940;52.126;-0.994;2022-12-07T14:12:25;5.60;;;5.00;;
62947;SDS011;51940;52.126;-0.994;2022-12-07T14:14:51;9.00;;;4.50;;
62947;SDS011;51940;52.126;-0.994;2022-12-07T14:17:20;10.00;;;4.40;;
62947;SDS011;51940;52.126;-0.994;2022-12-07T14:19:51;10.60;;;5.00;;
62947;SDS011;51940;52.126;-0.994;2022-12-07T14:25:14;9.80;;;5.00;;
62947;SDS011;51940;52.126;-0.994;2022-12-07T14:28:01;8.50;;;4.30;;
62947;SDS011;51940;52.126;-0.994;2022-12-07T14:30:30;10.00;;;4.80;;
62947;SDS011;51940;52.126;-0.994;2022-12-07T14:33:07;7.70;;;4.80;;
62947;SDS011;51940;52.126;-0.994;2022-12-07T14:35:34;8.00;;;4.10;;
62947;SDS011;51940;52.126;-0.994;2022-12-07T14:38:05;8.90;;;4.50;;
62947;SDS011;51940;52.126;-0.994;2022-12-07T14:40:30;6.70;;;4.10;;
62947;SDS011;51940;52.126;-0.994;2022-12-07T14:42:59;5.70;;;4.40;;
62947;SDS011;51940;52.126;-0.994;2022-12-07T14:45:26;7.80;;;4.70;;
62947;SDS011;51940;52.126;-0.994;2022-12-07T14:47:52;11.40;;;5.40;;
62947;SDS011;51940;52.126;-0.994;2022-12-07T14:50:18;8.00;;;5.30;;
62947;SDS011;51940;52.126;-0.994;2022-12-07T14:52:52;7.90;;;4.80;;
62947;SDS011;51940;52.126;-0.994;2022-12-07T14:55:22;8.30;;;4.40;;
62947;SDS011;51940;52.126;-0.994;2022-12-07T14:57:49;8.40;;;4.40;;
62947;SDS011;51940;52.126;-0.994;2022-12-07T15:00:15;9.90;;;5.00;;
62947;SDS011;51940;52.126;-0.994;2022-12-07T15:02:43;9.60;;;5.20;;
62947;SDS011;51940;52.126;-0.994;2022-12-07T15:05:09;7.60;;;4.60;;
62947;SDS011;51940;52.126;-0.994;2022-12-07T15:07:35;10.40;;;5.30;;
62947;SDS011;51940;52.126;-0.994;2022-12-07T15:10:00;10.30;;;5.70;;
62947;SDS011;51940;52.126;-0.994;2022-12-07T15:12:27;8.60;;;5.80;;
62947;SDS011;51940;52.126;-0.994;2022-12-07T15:14:53;10.80;;;5.70;;
62947;SDS011;51940;52.126;-0.994;2022-12-07T15:17:19;9.80;;;6.10;;
62947;SDS011;51940;52.126;-0.994;2022-12-07T15:19:44;8.40;;;5.70;;
62947;SDS011;51940;52.126;-0.994;2022-12-07T15:22:09;10.10;;;6.20;;
62947;SDS011;51940;52.126;-0.994;2022-12-07T15:24:36;11.40;;;6.00;;
62947;SDS011;51940;52.126;-0.994;2022-12-07T15:27:02;9.70;;;5.90;;
62947;SDS011;51940;52.126;-0.994;2022-12-07T15:29:28;9.60;;;5.80;;
62947;SDS011;51940;52.126;-0.994;2022-12-07T15:31:54;8.50;;;5.60;;
62947;SDS011;51940;52.126;-0.994;2022-12-07T15:34:19;7.70;;;5.40;;
62947;SDS011;51940;52.126;-0.994;2022-12-07T15:36:44;14.30;;;7.00;;
62947;SDS011;51940;52.126;-0.994;2022-12-07T15:39:10;11.10;;;6.30;;
62947;SDS011;51940;52.126;-0.994;2022-12-07T15:41:36;7.70;;;6.20;;
62947;SDS011;51940;52.126;-0.994;2022-12-07T15:44:02;13.00;;;6.30;;
62947;SDS011;51940;52.126;-0.994;2022-12-07T15:46:46;8.80;;;6.00;;
62947;SDS011;51940;52.126;-0.994;2022-12-07T15:49:12;14.20;;;6.90;;
62947;SDS011;51940;52.126;-0.994;2022-12-07T15:51:41;10.40;;;6.40;;
62947;SDS011;51940;52.126;-0.994;2022-12-07T15:57:03;10.50;;;6.70;;
62947;SDS011;51940;52.126;-0.994;2022-12-07T15:59:28;11.80;;;6.80;;
62947;SDS011;51940;52.126;-0.994;2022-12-07T16:01:54;9.40;;;6.20;;
62947;SDS011;51940;52.126;-0.994;2022-12-07T16:04:20;9.40;;;6.50;;
62947;SDS011;51940;52.126;-0.994;2022-12-07T16:06:45;11.90;;;6.60;;
62947;SDS011;51940;52.126;-0.994;2022-12-07T16:09:11;10.10;;;7.10;;
62947;SDS011;51940;52.126;-0.994;2022-12-07T16:11:37;12.50;;;7.50;;
62947;SDS011;51940;52.126;-0.994;2022-12-07T16:14:03;11.60;;;7.60;;
62947;SDS011;51940;52.126;-0.994;2022-12-07T16:16:28;10.40;;;6.60;;
62947;SDS011;51940;52.126;-0.994;2022-12-07T16:18:54;10.30;;;7.30;;
62947;SDS011;51940;52.126;-0.994;2022-12-07T16:21:19;11.20;;;7.50;;
62947;SDS011;51940;52.126;-0.994;2022-12-07T16:23:45;14.30;;;8.40;;
62947;SDS011;51940;52.126;-0.994;2022-12-07T16:26:15;16.10;;;7.60;;
62947;SDS011;51940;52.126;-0.994;2022-12-07T16:28:42;20.90;;;7.60;;
62947;SDS011;51940;52.126;-0.994;2022-12-07T16:31:12;15.90;;;8.00;;
62947;SDS011;51940;52.126;-0.994;2022-12-07T16:33:39;32.40;;;9.20;;
62947;SDS011;51940;52.126;-0.994;2022-12-07T16:36:06;29.80;;;8.70;;
62947;SDS011;51940;52.126;-0.994;2022-12-07T16:38:33;18.40;;;8.50;;
62947;SDS011;51940;52.126;-0.994;2022-12-07T16:41:00;14.50;;;8.50;;
62947;SDS011;51940;52.126;-0.994;2022-12-07T16:43:27;12.10;;;8.40;;
62947;SDS011;51940;52.126;-0.994;2022-12-07T16:45:52;15.30;;;9.40;;
62947;SDS011;51940;52.126;-0.994;2022-12-07T16:48:18;15.20;;;8.90;;
62947;SDS011;51940;52.126;-0.994;2022-12-07T16:50:43;15.50;;;8.50;;
62947;SDS011;51940;52.126;-0.994;2022-12-07T16:53:10;11.50;;;8.40;;
62947;SDS011;51940;52.126;-0.994;2022-12-07T16:55:38;20.40;;;8.90;;
62947;SDS011;51940;52.126;-0.994;2022-12-07T16:58:04;15.60;;;8.90;;
62947;SDS011;51940;52.126;-0.994;2022-12-07T17:00:31;16.70;;;12.00;;
62947;SDS011;51940;52.126;-0.994;2022-12-07T17:02:56;16.40;;;9.50;;
62947;SDS011;51940;52.126;-0.994;2022-12-07T17:05:23;17.30;;;9.50;;
62947;SDS011;51940;52.126;-0.994;2022-12-07T17:07:49;13.50;;;8.70;;
62947;SDS011;51940;52.126;-0.994;2022-12-07T17:10:15;12.80;;;9.60;;
62947;SDS011;51940;52.126;-0.994;2022-12-07T17:12:40;17.00;;;9.90;;
62947;SDS011;51940;52.126;-0.994;2022-12-07T17:15:06;16.30;;;10.10;;
62947;SDS011;51940;52.126;-0.994;2022-12-07T17:17:42;13.00;;;8.70;;
62947;SDS011;51940;52.126;-0.994;2022-12-07T17:20:11;16.10;;;8.40;;
62947;SDS011;51940;52.126;-0.994;2022-12-07T17:22:37;18.40;;;8.20;;